Time;durP1;ratioP1;P1;durP2;ratioP2;P2;SDS_P1;SDS_P2;PMS_P1;PMS_P2;Temp;Humidity;BMP_temperature;BMP_pressure;BME280_temperature;BME280_humidity;BME280_pressure;Samples;Min_cycle;Max_cycle;Signal;HPM_P1;HPM_P2
2022/11/30 00:01:07;;;;;;;;;23.50;20.25;;;;;10.08;66.37;102100.59;2361543;28;47310;-77
2022/11/30 00:02:17;;;;;;;;;22.50;22.50;;;;;10.06;66.37;102088.34;2378187;28;45344;-78
2022/11/30 00:03:27;;;;;;;;;29.50;22.75;;;;;10.06;66.48;102083.97;2384481;28;46662;-78
2022/11/30 00:04:38;;;;;;;;;25.25;23.25;;;;;10.06;66.00;102090.97;2385259;28;45457;-78
2022/11/30 00:05:48;;;;;;;;;28.50;24.50;;;;;10.03;66.40;102086.63;2384940;28;46514;-78
2022/11/30 00:06:59;;;;;;;;;26.50;22.50;;;;;10.04;66.49;102091.00;2385195;28;45347;-78
2022/11/30 00:08:09;;;;;;;;;24.25;20.25;;;;;10.02;66.61;102083.13;2385016;28;45552;-78
2022/11/30 00:09:20;;;;;;;;;27.50;22.25;;;;;10.02;66.55;102084.91;2374984;28;45225;-78
2022/11/30 00:10:30;;;;;;;;;25.75;20.75;;;;;10.02;66.52;102093.63;2377714;28;45263;-78
2022/11/30 00:11:40;;;;;;;;;25.75;20.50;;;;;10.03;66.83;102084.00;2380309;28;45257;-77
2022/11/30 00:12:52;;;;;;;;;25.25;23.00;;;;;10.02;66.56;102082.28;2379252;28;45239;-77
2022/11/30 00:14:03;;;;;;;;;26.25;21.00;;;;;10.02;66.76;102077.03;2385118;28;45246;-78
2022/11/30 00:15:16;;;;;;;;;24.25;21.25;;;;;10.02;67.05;102080.50;2384735;28;45338;-78
2022/11/30 00:16:26;;;;;;;;;21.50;18.25;;;;;10.03;66.89;102081.38;2385131;28;45169;-78
2022/11/30 00:17:36;;;;;;;;;21.25;20.00;;;;;10.06;67.07;102083.09;2384908;28;46447;-78
2022/11/30 00:18:47;;;;;;;;;21.25;19.50;;;;;10.08;67.16;102084.84;2385075;28;45329;-78
2022/11/30 00:19:57;;;;;;;;;29.00;23.00;;;;;10.07;66.88;102077.84;2384910;28;45419;-78
2022/11/30 00:21:11;;;;;;;;;31.00;23.00;;;;;10.10;66.97;102076.97;2384745;28;45159;-78
2022/11/30 00:22:21;;;;;;;;;24.25;20.00;;;;;10.10;67.11;102084.84;2382777;28;45292;-78
2022/11/30 00:23:36;;;;;;;;;28.50;22.75;;;;;10.10;66.83;102077.81;2385130;28;45148;-78
2022/11/30 00:24:46;;;;;;;;;23.75;19.00;;;;;10.11;66.64;102082.19;2384862;28;46511;-78
2022/11/30 00:26:00;;;;;;;;;29.25;24.25;;;;;10.13;66.49;102077.78;2385052;28;45465;-78
2022/11/30 00:27:11;;;;;;;;;31.25;25.50;;;;;10.13;66.69;102079.53;2384948;28;45220;-78
2022/11/30 00:28:22;;;;;;;;;24.25;21.25;;;;;10.11;66.69;102078.69;2373887;28;45244;-78
2022/11/30 00:29:33;;;;;;;;;24.75;22.25;;;;;10.09;66.93;102083.97;2374510;28;47449;-78
2022/11/30 00:30:43;;;;;;;;;27.25;24.25;;;;;10.08;66.23;102079.56;2378036;28;45272;-78
2022/11/30 00:31:53;;;;;;;;;32.50;26.00;;;;;10.10;66.74;102071.69;2384893;28;45254;-78
2022/11/30 00:33:03;;;;;;;;;24.25;23.50;;;;;10.10;67.00;102071.69;2384201;28;45272;-78
2022/11/30 00:34:14;;;;;;;;;29.75;25.00;;;;;10.12;67.12;102073.41;2384724;28;46567;-78
2022/11/30 00:35:24;;;;;;;;;28.50;23.50;;;;;10.10;66.66;102064.66;2384942;28;45367;-78
2022/11/30 00:36:35;;;;;;;;;27.50;25.00;;;;;10.13;66.84;102072.53;2384828;28;45385;-78
2022/11/30 00:37:45;;;;;;;;;34.25;26.75;;;;;10.13;66.45;102069.03;2374887;28;45422;-78
2022/11/30 00:38:55;;;;;;;;;32.25;24.00;;;;;10.12;66.93;102068.16;2374668;28;48314;-78
2022/11/30 00:40:06;;;;;;;;;27.50;25.25;;;;;10.11;67.12;102063.78;2377948;28;45351;-78
2022/11/30 00:41:18;;;;;;;;;28.00;24.25;;;;;10.12;66.89;102076.03;2384768;28;46313;-78
2022/11/30 00:42:28;;;;;;;;;34.00;27.00;;;;;10.10;66.92;102069.06;2384139;28;45469;-78
2022/11/30 00:43:38;;;;;;;;;28.75;24.00;;;;;10.12;66.87;102067.28;2384705;28;45358;-78
2022/11/30 00:44:49;;;;;;;;;29.00;27.00;;;;;10.12;67.01;102059.41;2384285;28;45220;-78
2022/11/30 00:45:59;;;;;;;;;31.00;26.75;;;;;10.13;66.96;102064.66;2384733;28;46205;-78
2022/11/30 00:47:09;;;;;;;;;22.50;20.00;;;;;10.13;66.71;102067.28;2384660;28;45282;-78
2022/11/30 00:48:20;;;;;;;;;25.00;22.25;;;;;10.13;66.58;102066.41;2384709;28;45215;-78
2022/11/30 00:49:32;;;;;;;;;24.50;22.75;;;;;10.12;66.60;102062.88;2384893;28;45171;-78
2022/11/30 00:50:43;;;;;;;;;28.00;23.50;;;;;10.14;66.60;102068.16;2384716;28;45311;-78
2022/11/30 00:51:53;;;;;;;;;33.00;26.50;;;;;10.12;66.49;102062.88;2374988;28;45233;-78
2022/11/30 00:53:03;;;;;;;;;26.75;21.50;;;;;10.11;66.39;102058.53;2376894;28;46232;-78
2022/11/30 00:54:14;;;;;;;;;32.50;27.25;;;;;10.09;66.18;102054.19;2384794;28;44769;-78
2022/11/30 00:55:25;;;;;;;;;30.25;22.25;;;;;10.08;66.17;102060.31;2384451;28;46439;-78
2022/11/30 00:56:35;;;;;;;;;23.00;20.50;;;;;10.09;66.39;102067.31;2384776;28;45452;-78
2022/11/30 00:57:45;;;;;;;;;27.75;21.75;;;;;10.05;66.58;102061.22;2384555;28;46513;-78
2022/11/30 00:58:55;;;;;;;;;26.25;25.25;;;;;10.05;66.25;102061.22;2374768;28;44754;-78
2022/11/30 01:00:06;;;;;;;;;26.75;22.25;;;;;10.04;66.59;102055.97;2377350;28;45445;-78
2022/11/30 01:01:17;;;;;;;;;27.50;23.50;;;;;10.02;66.61;102062.09;2384785;28;45175;-78
2022/11/30 01:02:27;;;;;;;;;28.75;21.75;;;;;10.01;66.43;102063.00;2383704;28;45462;-78
2022/11/30 01:03:37;;;;;;;;;29.00;23.25;;;;;10.01;66.30;102056.88;2384796;28;45410;-78
2022/11/30 01:04:48;;;;;;;;;30.00;23.00;;;;;9.99;66.53;102056.03;2384080;28;45527;-78
2022/11/30 01:06:06;;;;;;;;;33.75;27.00;;;;;9.99;66.61;102058.66;2384196;28;44818;-78
2022/11/30 01:07:17;;;;;;;;;28.50;23.75;;;;;9.95;66.36;102059.56;2384718;28;45303;-78
2022/11/30 01:08:27;;;;;;;;;32.00;25.00;;;;;9.95;66.43;102062.19;2384568;28;45446;-78
2022/11/30 01:09:37;;;;;;;;;29.50;24.50;;;;;9.96;66.73;102066.56;2384557;28;45402;-78
2022/11/30 01:10:52;;;;;;;;;26.50;23.00;;;;;9.94;66.42;102060.44;2384685;28;45189;-78
2022/11/30 01:12:02;;;;;;;;;34.00;27.75;;;;;9.92;66.68;102067.47;2384700;28;45393;-78
2022/11/30 01:13:14;;;;;;;;;27.25;24.00;;;;;9.90;66.45;102072.75;2383064;28;45261;-78
2022/11/30 01:14:25;;;;;;;;;26.50;22.75;;;;;9.89;66.68;102068.38;2384307;28;45378;-78
2022/11/30 01:15:37;;;;;;;;;28.00;23.25;;;;;9.87;66.52;102070.16;2384852;28;44702;-78
2022/11/30 01:16:48;;;;;;;;;26.25;24.50;;;;;9.86;66.62;102073.63;2374369;28;48204;-78
2022/11/30 01:17:59;;;;;;;;;23.75;22.00;;;;;9.86;66.38;102069.25;2374560;28;45458;-78
2022/11/30 01:19:09;;;;;;;;;31.00;24.25;;;;;9.85;66.27;102066.66;2377391;28;45377;-78
2022/11/30 01:20:19;;;;;;;;;22.50;18.25;;;;;9.83;66.57;102071.06;2384749;28;44679;-78
2022/11/30 01:21:30;;;;;;;;;30.00;25.25;;;;;9.82;66.92;102071.94;2384450;28;46412;-78
2022/11/30 01:22:40;;;;;;;;;26.25;24.50;;;;;9.81;66.73;102068.44;2383107;28;44821;-78
2022/11/30 01:23:52;;;;;;;;;23.75;21.25;;;;;9.82;66.44;102069.31;2383592;28;45395;-78
2022/11/30 01:25:03;;;;;;;;;29.00;21.75;;;;;9.80;66.52;102064.09;2384703;28;45256;-78
2022/11/30 01:26:14;;;;;;;;;29.25;20.50;;;;;9.81;66.48;102065.81;2384293;28;46393;-78
2022/11/30 01:27:24;;;;;;;;;25.00;21.25;;;;;9.80;66.80;102061.44;2384578;28;45464;-78
2022/11/30 01:28:35;;;;;;;;;20.75;17.25;;;;;9.78;66.79;102064.06;2384439;28;45566;-78
2022/11/30 01:29:45;;;;;;;;;26.50;23.00;;;;;9.79;66.52;102057.06;2384443;28;45323;-78
2022/11/30 01:31:07;;;;;;;;;19.75;18.00;;;;;9.78;66.58;102057.94;2383572;28;45461;-78
2022/11/30 01:32:17;;;;;;;;;24.00;20.50;;;;;9.79;66.76;102057.06;2384612;28;45251;-78
2022/11/30 01:33:28;;;;;;;;;28.75;21.25;;;;;9.79;66.77;102062.31;2384261;28;46180;-79
2022/11/30 01:34:38;;;;;;;;;27.25;25.00;;;;;9.78;66.61;102056.19;2384659;28;45303;-79
2022/11/30 01:36:00;;;;;;;;;29.50;24.25;;;;;9.80;67.08;102066.72;2374236;28;48002;-78
2022/11/30 01:37:11;;;;;;;;;23.75;21.25;;;;;9.81;66.92;102063.19;2379103;28;45235;-78
2022/11/30 01:38:21;;;;;;;;;21.75;20.75;;;;;9.81;67.15;102062.31;2384298;28;46149;-78
2022/11/30 01:39:31;;;;;;;;;26.00;22.00;;;;;9.85;66.93;102061.41;2384201;28;45204;-78
2022/11/30 01:40:49;;;;;;;;;26.75;23.25;;;;;9.86;66.89;102064.00;2384175;28;46260;-78
2022/11/30 01:41:59;;;;;;;;;25.75;23.00;;;;;9.86;66.79;102065.75;2379148;28;44545;-78
2022/11/30 01:43:11;;;;;;;;;24.75;23.00;;;;;9.87;66.43;102064.88;2384280;28;46348;-78
2022/11/30 01:44:25;;;;;;;;;25.50;20.25;;;;;9.87;66.62;102059.63;2383897;28;45212;-78
2022/11/30 01:45:35;;;;;;;;;23.00;18.25;;;;;9.86;66.09;102068.38;2384276;28;46179;-78
2022/11/30 01:47:02;;;;;;;;;22.50;19.00;;;;;9.83;66.17;102065.81;2384082;28;44685;-78
2022/11/30 01:48:12;;;;;;;;;21.75;19.00;;;;;9.83;66.24;102065.81;2383589;28;48419;-78
2022/11/30 01:49:30;;;;;;;;;18.00;15.50;;;;;9.81;66.65;102072.81;2374280;28;45176;-78
2022/11/30 01:50:41;;;;;;;;;22.25;18.00;;;;;9.78;66.47;102071.06;2378077;28;47401;-78
2022/11/30 01:52:01;;;;;;;;;23.00;21.50;;;;;9.76;66.23;102064.97;2383619;28;45535;-78
2022/11/30 01:53:12;;;;;;;;;19.25;18.50;;;;;9.76;66.56;102078.09;2384284;28;45606;-78
2022/11/30 01:54:27;;;;;;;;;18.75;18.75;;;;;9.76;66.56;102070.22;2384443;28;44591;-78
2022/11/30 01:55:44;;;;;;;;;23.25;20.00;;;;;9.77;66.17;102079.84;2384019;28;45430;-78
2022/11/30 01:57:12;;;;;;;;;23.25;19.75;;;;;9.74;66.92;102074.63;2384477;28;44632;-78
2022/11/30 01:58:29;;;;;;;;;24.50;21.25;;;;;9.75;66.53;102073.75;2383923;28;45419;-78
2022/11/30 01:59:39;;;;;;;;;11.00;10.00;;;;;9.74;66.28;102074.63;2384254;28;45241;-78
2022/11/30 02:00:50;;;;;;;;;26.50;19.50;;;;;9.75;66.59;102076.38;2383550;28;46138;-78
2022/11/30 02:02:00;;;;;;;;;20.75;19.50;;;;;9.76;66.52;102078.09;2374252;28;45193;-78
2022/11/30 02:03:20;;;;;;;;;24.75;19.00;;;;;9.75;66.65;102076.38;2376976;28;46520;-78
2022/11/30 02:04:34;;;;;;;;;27.00;23.00;;;;;9.76;66.79;102072.84;2383276;28;45219;-78
2022/11/30 02:05:45;;;;;;;;;19.25;19.25;;;;;9.78;66.55;102071.06;2383088;28;46049;-78
2022/11/30 02:06:57;;;;;;;;;26.00;23.50;;;;;9.81;66.89;102072.81;2383944;28;45361;-78
2022/11/30 02:08:12;;;;;;;;;22.50;21.25;;;;;9.80;66.55;102069.34;2384252;28;45417;-78
2022/11/30 02:09:23;;;;;;;;;28.00;26.25;;;;;9.82;66.78;102067.56;2383221;28;44637;-78
2022/11/30 02:10:39;;;;;;;;;22.50;20.00;;;;;9.84;66.80;102076.28;2384044;28;45448;-78
2022/11/30 02:11:50;;;;;;;;;27.00;22.50;;;;;9.84;66.29;102076.28;2384214;28;45169;-78
2022/11/30 02:13:20;;;;;;;;;27.50;22.00;;;;;9.85;66.59;102078.00;2374042;28;47113;-78
2022/11/30 02:14:38;;;;;;;;;25.25;22.25;;;;;9.83;66.35;102068.44;2369866;28;45379;-78
2022/11/30 02:16:01;;;;;;;;;25.50;25.00;;;;;9.80;66.21;102069.34;2377928;28;47109;-78
2022/11/30 02:17:48;;;;;;;;;27.00;25.00;;;;;9.76;66.34;102072.84;2384164;28;45184;-78
2022/11/30 02:19:17;;;;;;;;;22.00;21.50;;;;;9.72;66.32;102072.00;2384048;28;45334;-78
2022/11/30 02:20:58;;;;;;;;;16.00;16.00;;;;;9.67;66.12;102066.81;2373689;28;45430;-78
2022/11/30 02:22:56;;;;;;;;;28.75;25.75;;;;;9.68;66.42;102072.91;2373878;28;48467;-78
2022/11/30 02:24:37;;;;;;;;;27.25;23.00;;;;;9.63;66.51;102075.56;2383512;28;45447;-78
2022/11/30 02:26:25;;;;;;;;;28.00;23.00;;;;;9.63;66.64;102078.19;2384020;28;46726;-78
2022/11/30 02:27:57;;;;;;;;;24.00;21.75;;;;;9.62;66.67;102071.22;2384342;28;44667;-78
2022/11/30 02:29:36;;;;;;;;;27.75;22.50;;;;;9.62;66.79;102078.22;2373813;28;47339;-78
2022/11/30 02:30:52;;;;;;;;;25.75;20.50;;;;;9.61;67.03;102072.06;2362109;29;45368;-78
2022/11/30 02:32:11;;;;;;;;;27.25;24.00;;;;;9.60;66.99;102075.59;2365557;28;47372;-78
2022/11/30 02:33:27;;;;;;;;;6.00;5.25;;;;;9.59;66.73;102070.34;2367956;28;45300;-78
2022/11/30 02:34:41;;;;;;;;;25.75;21.25;;;;;9.61;66.74;102071.19;2367958;28;49149;-78
2022/11/30 02:35:54;;;;;;;;;28.25;25.50;;;;;9.62;67.20;102068.59;2377469;28;45199;-78
2022/11/30 02:37:08;;;;;;;;;24.50;18.75;;;;;9.62;66.45;102073.84;2383397;28;45732;-78
2022/11/30 02:38:21;;;;;;;;;28.25;24.00;;;;;9.63;66.53;102075.56;2384079;28;45366;-78
2022/11/30 02:39:31;;;;;;;;;25.25;23.50;;;;;9.63;66.66;102077.34;2373893;28;48269;-78
2022/11/30 02:40:42;;;;;;;;;24.25;24.00;;;;;9.60;66.72;102072.09;2376979;28;45300;-78
2022/11/30 02:41:52;;;;;;;;;22.50;20.50;;;;;9.61;66.40;102076.44;2383979;28;45448;-78
2022/11/30 02:43:05;;;;;;;;;23.25;19.00;;;;;9.60;66.39;102083.47;2373712;28;44692;-78
2022/11/30 02:44:16;;;;;;;;;24.00;21.00;;;;;9.57;66.39;102076.50;2376818;28;45453;-78
2022/11/30 02:45:51;;;;;;;;;21.75;17.50;;;;;9.55;66.28;102074.75;2380354;28;45469;-78
2022/11/30 02:47:21;;;;;;;;;22.50;20.75;;;;;9.51;66.13;102073.91;2370217;28;47323;-78
2022/11/30 02:48:37;;;;;;;;;22.25;19.50;;;;;9.48;66.55;102071.31;2379567;28;45194;-78
2022/11/30 02:49:58;;;;;;;;;22.25;17.50;;;;;9.48;66.47;102079.19;2383999;28;45405;-78
2022/11/30 02:51:11;;;;;;;;;30.75;22.00;;;;;9.46;66.48;102078.31;2383957;28;44764;-78
2022/11/30 02:52:25;;;;;;;;;22.50;19.75;;;;;9.46;66.70;102075.69;2385412;28;46355;-78
2022/11/30 02:53:36;;;;;;;;;23.75;21.00;;;;;9.45;66.34;102076.59;2374901;28;45235;-78
2022/11/30 02:54:46;;;;;;;;;20.50;20.50;;;;;9.44;66.67;102073.06;2360584;28;46921;-78
2022/11/30 02:55:57;;;;;;;;;21.00;18.00;;;;;9.43;66.67;102073.94;2378530;28;45271;-78
2022/11/30 02:57:08;;;;;;;;;24.50;20.00;;;;;9.45;67.03;102071.34;2385447;28;45419;-78
2022/11/30 02:58:19;;;;;;;;;23.50;18.25;;;;;9.44;66.92;102072.19;2385705;28;45366;-78
2022/11/30 02:59:29;;;;;;;;;19.00;15.50;;;;;9.44;66.92;102066.94;2385363;28;46683;-78
2022/11/30 03:00:40;;;;;;;;;24.25;19.75;;;;;9.45;66.67;102069.59;2384785;28;44779;-78
2022/11/30 03:01:50;;;;;;;;;24.75;20.25;;;;;9.48;66.66;102073.06;2385048;28;45298;-78
2022/11/30 03:03:00;;;;;;;;;24.00;22.00;;;;;9.50;66.80;102072.19;2385721;28;45235;-79
2022/11/30 03:04:11;;;;;;;;;21.75;19.25;;;;;9.49;66.39;102073.03;2375420;28;46824;-78
2022/11/30 03:05:21;;;;;;;;;19.00;18.00;;;;;9.51;66.63;102080.91;2378385;28;45304;-78
2022/11/30 03:06:31;;;;;;;;;23.75;19.00;;;;;9.50;66.91;102077.44;2385527;28;46297;-78
2022/11/30 03:07:42;;;;;;;;;25.25;20.75;;;;;9.51;66.62;102083.53;2385548;28;45180;-78
2022/11/30 03:08:52;;;;;;;;;22.75;19.25;;;;;9.50;66.25;102087.91;2385387;28;45492;-78
2022/11/30 03:10:04;;;;;;;;;25.25;21.00;;;;;9.49;66.88;102080.91;2385588;28;45232;-78
2022/11/30 03:11:14;;;;;;;;;25.50;23.25;;;;;9.45;66.38;102082.72;2384801;28;45543;-78
2022/11/30 03:12:25;;;;;;;;;24.00;20.75;;;;;9.44;66.58;102083.56;2375450;28;45301;-78
2022/11/30 03:13:35;;;;;;;;;24.00;18.00;;;;;9.47;66.61;102084.44;2375237;28;48201;-78
2022/11/30 03:14:46;;;;;;;;;28.50;21.00;;;;;9.46;66.59;102086.19;2378238;28;45254;-78
2022/11/30 03:15:56;;;;;;;;;28.25;23.75;;;;;9.44;66.50;102080.06;2385420;28;45494;-78
2022/11/30 03:17:06;;;;;;;;;25.00;21.00;;;;;9.43;66.79;102080.97;2375370;28;45490;-78
2022/11/30 03:18:17;;;;;;;;;25.25;22.00;;;;;9.44;66.76;102078.31;2378166;28;45456;-78
2022/11/30 03:19:27;;;;;;;;;28.75;20.25;;;;;9.44;66.94;102085.31;2385665;28;45161;-78
2022/11/30 03:20:41;;;;;;;;;22.25;19.50;;;;;9.44;66.51;102086.19;2385296;28;45335;-78
2022/11/30 03:21:52;;;;;;;;;25.75;19.00;;;;;9.41;66.68;102091.47;2384832;28;45306;-78
2022/11/30 03:23:02;;;;;;;;;26.75;20.50;;;;;9.38;66.61;102091.50;2385294;28;45357;-78
2022/11/30 03:24:12;;;;;;;;;23.00;19.75;;;;;9.37;66.51;102088.88;2385671;28;45199;-78
2022/11/30 03:25:23;;;;;;;;;20.25;17.75;;;;;9.34;66.35;102089.75;2385351;28;46431;-78
2022/11/30 03:26:33;;;;;;;;;21.25;16.75;;;;;9.33;66.61;102088.03;2375510;28;44835;-78
2022/11/30 03:27:43;;;;;;;;;20.50;17.75;;;;;9.32;66.69;102086.28;2378310;28;45278;-78
2022/11/30 03:28:53;;;;;;;;;19.50;19.00;;;;;9.32;66.81;102097.66;2385493;28;45244;-78
2022/11/30 03:30:05;;;;;;;;;26.00;21.75;;;;;9.34;66.86;102092.38;2384636;28;46186;-78
2022/11/30 03:31:15;;;;;;;;;23.25;18.50;;;;;9.35;66.38;102088.88;2374864;28;45265;-78
2022/11/30 03:32:26;;;;;;;;;18.50;15.00;;;;;9.34;66.58;102087.13;2375028;28;47204;-78
2022/11/30 03:33:36;;;;;;;;;18.67;17.33;;;;;9.34;66.82;102093.25;2378270;28;45335;-78
2022/11/30 03:34:47;;;;;;;;;22.75;19.00;;;;;9.34;66.76;102101.13;2385267;28;45366;-78
2022/11/30 03:35:59;;;;;;;;;19.75;16.50;;;;;9.35;66.86;102102.00;2385457;28;45172;-78
2022/11/30 03:37:10;;;;;;;;;18.50;15.00;;;;;9.35;66.34;102094.13;2375133;28;47560;-78
2022/11/30 03:38:20;;;;;;;;;14.75;14.75;;;;;9.32;66.12;102092.41;2378236;28;44732;-78
2022/11/30 03:39:31;;;;;;;;;15.25;13.25;;;;;9.31;66.33;102100.28;2385379;28;45359;-78
2022/11/30 03:40:41;;;;;;;;;11.75;11.75;;;;;9.28;66.37;102097.69;2385408;28;44749;-78
2022/11/30 03:41:51;;;;;;;;;12.50;12.50;;;;;9.27;66.45;102101.16;2380842;28;45612;-78
2022/11/30 03:43:02;;;;;;;;;14.75;12.50;;;;;9.26;66.19;102107.31;2385445;28;45283;-78
2022/11/30 03:44:12;;;;;;;;;14.25;12.00;;;;;9.23;66.44;102109.03;2385141;28;45203;-78
2022/11/30 03:45:23;;;;;;;;;13.00;11.25;;;;;9.19;66.26;102107.31;2385333;28;45232;-78
2022/11/30 03:46:33;;;;;;;;;11.50;11.50;;;;;9.15;66.09;102104.72;2385030;28;46110;-78
2022/11/30 03:47:43;;;;;;;;;11.50;10.75;;;;;9.09;66.16;102113.50;2375359;28;45252;-78
2022/11/30 03:48:54;;;;;;;;;15.75;13.00;;;;;9.05;66.86;102103.91;2378032;28;46192;-78
2022/11/30 03:50:05;;;;;;;;;14.00;12.25;;;;;9.04;66.65;102113.50;2385365;28;45473;-78
2022/11/30 03:51:15;;;;;;;;;12.50;12.50;;;;;9.03;66.60;102114.41;2374541;28;47304;-78
2022/11/30 03:52:25;;;;;;;;;11.50;10.50;;;;;9.01;66.76;102121.41;2378338;28;45340;-78
2022/11/30 03:53:36;;;;;;;;;11.50;9.00;;;;;9.00;66.77;102115.28;2385013;28;46267;-78
2022/11/30 03:54:47;;;;;;;;;10.75;10.75;;;;;9.00;66.24;102114.41;2384337;28;45300;-78
2022/11/30 03:56:00;;;;;;;;;9.50;9.50;;;;;8.98;66.86;102122.31;2391385;28;46519;-78
2022/11/30 03:57:10;;;;;;;;;9.00;7.50;;;;;8.98;66.44;102118.81;2385387;28;44639;-78
2022/11/30 03:58:22;;;;;;;;;11.00;8.50;;;;;8.97;66.70;102115.28;2385098;28;45401;-78
2022/11/30 03:59:32;;;;;;;;;12.00;9.50;;;;;8.96;66.50;102121.41;2385121;28;44692;-78
2022/11/30 04:00:42;;;;;;;;;11.25;7.50;;;;;8.95;66.84;102122.31;2384713;28;45203;-78
2022/11/30 04:01:53;;;;;;;;;10.50;8.00;;;;;8.95;66.87;102119.69;2379750;28;46211;-78
2022/11/30 04:03:03;;;;;;;;;9.50;9.50;;;;;8.96;66.56;102121.41;2384859;28;46641;-78
2022/11/30 04:04:14;;;;;;;;;10.00;9.00;;;;;8.96;66.71;102121.41;2385201;28;44679;-78
2022/11/30 04:05:24;;;;;;;;;10.50;9.00;;;;;8.95;67.05;102122.31;2374943;28;47232;-78
2022/11/30 04:06:34;;;;;;;;;10.75;9.75;;;;;8.97;66.79;102124.91;2378043;28;45474;-78
2022/11/30 04:07:45;;;;;;;;;11.00;8.00;;;;;8.95;66.52;102127.56;2385169;28;46301;-78
2022/11/30 04:08:55;;;;;;;;;10.00;8.00;;;;;8.94;66.23;102124.94;2385205;28;45331;-78
2022/11/30 04:10:06;;;;;;;;;11.75;10.00;;;;;8.91;66.14;102117.97;2385050;28;45350;-78
2022/11/30 04:11:16;;;;;;;;;11.50;8.00;;;;;8.90;66.77;102118.81;2384478;28;45488;-78
2022/11/30 04:12:27;;;;;;;;;8.50;6.25;;;;;8.91;66.25;102119.69;2385090;28;45377;-78
2022/11/30 04:13:38;;;;;;;;;7.00;7.00;;;;;8.89;66.48;102135.41;2385125;28;45507;-78
2022/11/30 04:14:49;;;;;;;;;8.50;8.00;;;;;8.86;66.82;102133.72;2384789;28;45489;-78
2022/11/30 04:15:59;;;;;;;;;8.00;8.00;;;;;8.86;66.63;102135.44;2385209;28;45228;-78
2022/11/30 04:17:09;;;;;;;;;8.50;7.25;;;;;8.85;66.48;102133.69;2384782;28;45442;-78
2022/11/30 04:18:21;;;;;;;;;8.00;7.50;;;;;8.85;66.35;102133.69;2385143;28;45233;-78
2022/11/30 04:19:32;;;;;;;;;7.00;7.00;;;;;8.85;66.68;102136.31;2384984;28;45457;-78
2022/11/30 04:20:42;;;;;;;;;9.25;7.00;;;;;8.86;66.95;102140.69;2385322;28;45271;-78
2022/11/30 04:21:52;;;;;;;;;8.25;7.00;;;;;8.86;66.36;102140.69;2384276;28;45453;-78
2022/11/30 04:23:03;;;;;;;;;7.25;6.00;;;;;8.85;66.43;102141.56;2385112;28;44670;-78
2022/11/30 04:24:13;;;;;;;;;9.00;7.00;;;;;8.85;66.24;102138.94;2385070;28;45243;-78
2022/11/30 04:25:23;;;;;;;;;10.00;7.25;;;;;8.88;66.79;102138.94;2385107;28;45171;-78
2022/11/30 04:26:34;;;;;;;;;0.00;0.00;;;;;8.87;66.09;102139.81;2384946;28;46443;-78
2022/11/30 04:27:45;;;;;;;;;7.00;5.25;;;;;8.86;66.73;102145.94;2385065;28;45226;-78
2022/11/30 04:28:56;;;;;;;;;3.00;2.25;;;;;8.84;65.92;102139.84;2384856;28;45336;-78
2022/11/30 04:30:07;;;;;;;;;5.50;5.50;;;;;8.84;66.36;102145.94;2381252;28;44825;-78
2022/11/30 04:31:17;;;;;;;;;5.50;5.50;;;;;8.83;66.24;102143.31;2383303;28;46627;-78
2022/11/30 04:32:27;;;;;;;;;5.00;5.00;;;;;8.84;65.84;102145.06;2374665;28;45344;-78
2022/11/30 04:33:38;;;;;;;;;3.75;3.25;;;;;8.80;65.66;102149.44;2377629;28;48038;-78
2022/11/30 04:34:48;;;;;;;;;5.25;5.00;;;;;8.74;65.16;102145.06;2385075;28;44744;-78
2022/11/30 04:36:02;;;;;;;;;5.00;4.50;;;;;8.71;65.63;102145.09;2384860;28;45574;-78
2022/11/30 04:37:12;;;;;;;;;6.75;6.00;;;;;8.66;65.81;102155.59;2384871;28;44569;-78
2022/11/30 04:38:23;;;;;;;;;6.25;5.00;;;;;8.62;66.08;102145.09;2384020;28;46436;-78
2022/11/30 04:39:34;;;;;;;;;5.50;5.50;;;;;8.60;66.16;102152.09;2375102;28;44602;-78
2022/11/30 04:40:44;;;;;;;;;7.00;5.00;;;;;8.59;66.57;102160.84;2377668;28;45535;-78
2022/11/30 04:41:55;;;;;;;;;5.75;4.00;;;;;8.57;66.38;102152.09;2384911;28;45320;-78
2022/11/30 04:43:06;;;;;;;;;3.75;3.25;;;;;8.58;66.30;102151.19;2384768;28;46061;-78
2022/11/30 04:44:16;;;;;;;;;2.75;2.75;;;;;8.56;66.24;102153.84;2384861;28;45396;-78
2022/11/30 04:45:26;;;;;;;;;7.00;5.25;;;;;8.56;66.64;102156.47;2384749;28;46325;-78
2022/11/30 04:46:37;;;;;;;;;6.25;4.00;;;;;8.57;66.27;102149.47;2384716;28;44643;-78
2022/11/30 04:47:47;;;;;;;;;5.75;4.75;;;;;8.59;66.23;102150.38;2385011;28;45356;-78
2022/11/30 04:48:57;;;;;;;;;3.25;3.25;;;;;8.59;66.31;102160.84;2384183;28;44761;-78
2022/11/30 04:50:08;;;;;;;;;3.75;3.75;;;;;8.61;66.29;102159.09;2384784;28;45440;-78
2022/11/30 04:51:19;;;;;;;;;7.25;5.00;;;;;8.60;66.58;102157.34;2384920;28;45259;-78
2022/11/30 04:52:29;;;;;;;;;3.75;3.00;;;;;8.59;66.12;102160.84;2384814;28;46531;-78
2022/11/30 04:53:39;;;;;;;;;3.00;3.00;;;;;8.58;66.26;102159.97;2384742;28;45349;-78
2022/11/30 04:54:50;;;;;;;;;5.75;5.75;;;;;8.60;65.81;102162.59;2374097;28;47942;-78
2022/11/30 04:56:08;;;;;;;;;4.00;4.00;;;;;8.61;65.80;102164.34;2377885;28;45302;-78
2022/11/30 04:57:19;;;;;;;;;4.50;4.50;;;;;8.58;66.25;102161.69;2384934;28;45574;-78
2022/11/30 04:58:29;;;;;;;;;5.00;5.00;;;;;8.58;66.73;102164.31;2373796;28;45297;-78
2022/11/30 04:59:39;;;;;;;;;5.50;5.50;;;;;8.58;66.41;102164.31;2377198;28;45569;-78
2022/11/30 05:00:53;;;;;;;;;4.00;4.00;;;;;8.59;66.46;102166.09;2374255;28;45507;-78
2022/11/30 05:02:03;;;;;;;;;6.00;4.50;;;;;8.59;66.44;102166.09;2377797;28;45267;-78
2022/11/30 05:03:13;;;;;;;;;6.00;6.00;;;;;8.60;66.52;102163.47;2384936;28;45173;-78
2022/11/30 05:04:24;;;;;;;;;5.50;5.25;;;;;8.61;66.27;102159.97;2384712;28;45307;-78
2022/11/30 05:05:34;;;;;;;;;7.50;6.00;;;;;8.62;65.74;102159.09;2384081;28;45200;-78
2022/11/30 05:06:44;;;;;;;;;7.75;6.00;;;;;8.61;66.28;102165.22;2384718;28;46046;-78
2022/11/30 05:07:56;;;;;;;;;6.00;5.00;;;;;8.61;65.94;102169.59;2384797;28;45394;-78
2022/11/30 05:09:07;;;;;;;;;4.50;4.50;;;;;8.59;65.81;102166.09;2374692;28;48221;-78
2022/11/30 05:10:17;;;;;;;;;9.50;5.00;;;;;8.58;66.22;102161.69;2377402;28;44785;-78
2022/11/30 05:11:27;;;;;;;;;5.00;5.00;;;;;8.59;66.09;102161.75;2384600;28;46180;-78
2022/11/30 05:12:38;;;;;;;;;5.00;4.75;;;;;8.61;66.12;102159.09;2384868;28;44690;-78
2022/11/30 05:13:48;;;;;;;;;9.50;5.75;;;;;8.60;66.07;102154.72;2374094;28;47113;-78
2022/11/30 05:14:59;;;;;;;;;4.50;4.50;;;;;8.61;66.40;102154.75;2367359;28;44916;-78
2022/11/30 05:16:12;;;;;;;;;5.75;4.75;;;;;8.63;66.85;102157.34;2376393;28;47198;-78
2022/11/30 05:17:22;;;;;;;;;9.00;6.00;;;;;8.63;66.18;102152.97;2384265;28;45284;-78
2022/11/30 05:18:33;;;;;;;;;6.00;6.00;;;;;8.65;66.56;102152.97;2384491;28;45378;-78
2022/11/30 05:19:43;;;;;;;;;7.75;5.75;;;;;8.64;66.57;102156.47;2384750;28;45188;-78
2022/11/30 05:20:54;;;;;;;;;5.00;5.00;;;;;8.65;66.43;102148.59;2374566;28;48220;-78
2022/11/30 05:22:04;;;;;;;;;5.25;4.00;;;;;8.64;65.98;102148.63;2368002;28;45314;-78
2022/11/30 05:23:16;;;;;;;;;5.50;4.00;;;;;8.63;66.15;102147.75;2367853;28;48250;-78
2022/11/30 05:24:26;;;;;;;;;5.50;5.50;;;;;8.62;66.35;102147.72;2376534;28;44728;-78
2022/11/30 05:25:36;;;;;;;;;8.00;6.25;;;;;8.62;66.05;102151.22;2374385;28;46268;-78
2022/11/30 05:26:47;;;;;;;;;9.50;6.00;;;;;8.63;66.09;102146.88;2374900;28;45800;-78
2022/11/30 05:27:57;;;;;;;;;7.50;7.50;;;;;8.63;66.69;102149.47;2379318;28;47010;-78
2022/11/30 05:29:07;;;;;;;;;8.75;7.50;;;;;8.65;66.29;102145.09;2374347;28;44918;-78
2022/11/30 05:30:18;;;;;;;;;8.00;7.25;;;;;8.64;66.13;102149.47;2377164;28;45460;-78
2022/11/30 05:31:28;;;;;;;;;5.00;5.00;;;;;8.63;65.76;102145.13;2384352;28;45307;-78
2022/11/30 05:32:39;;;;;;;;;8.00;8.00;;;;;8.62;65.93;102148.59;2374272;28;48057;-78
2022/11/30 05:33:52;;;;;;;;;7.75;6.75;;;;;8.61;66.26;102149.50;2376889;28;45523;-78
2022/11/30 05:35:03;;;;;;;;;8.00;7.00;;;;;8.59;65.96;102148.63;2383604;28;47337;-78